Orlik, Russia
Current Conditions -  °F | °C
As of 4:30 PM on Wednesday 26 Nov 2014 (Local Time) from UIII Reporting Station
Clear Clear  
Wind Chill: -19°   Ceiling: Unl
Heat Index: -13°   Visibility: 6mi
Dew Point: -20°   Wind: 7mph
Humidity: 57%   Direction: 130°SE
Pressure: 29.85"   Gusts: NA
Location:  52.51°N, 99.83°E
Report Text: UIII 260830Z 13003MPS CAVOK M13/M20 Q1011 NOSIG RMK QFE714/095230810360
Loading
Personal Weather Stations






























Interactive Weather Map New forecast layout! Learn more

10-Day Weather Forecast

Advertisements
Track Severe Weather on mobile